createdAt,value
2023-04-23T00:02:34.190Z,12.69
2023-04-23T00:05:38.628Z,12.81
2023-04-23T00:08:41.940Z,12.64
2023-04-23T00:11:44.857Z,12.65
2023-04-23T00:14:47.486Z,12.64
2023-04-23T00:17:49.949Z,12.66
2023-04-23T00:20:54.653Z,12.69
2023-04-23T00:23:57.007Z,12.47
2023-04-23T00:27:00.042Z,12.56
2023-04-23T00:30:04.339Z,12.34
2023-04-23T00:33:06.671Z,12.32
2023-04-23T00:36:09.097Z,12.35
2023-04-23T00:39:11.794Z,12.23
2023-04-23T00:42:14.285Z,12.08
2023-04-23T00:45:18.326Z,12.13
2023-04-23T00:48:21.462Z,12.21
2023-04-23T00:51:24.672Z,12.20
2023-04-23T00:54:27.828Z,12.22
2023-04-23T00:57:30.596Z,12.28
2023-04-23T01:00:35.781Z,12.24
2023-04-23T01:03:39.582Z,12.16
2023-04-23T01:06:42.929Z,12.24
2023-04-23T01:09:46.678Z,12.13
2023-04-23T01:12:49.798Z,12.15
2023-04-23T01:15:52.509Z,12.13
2023-04-23T01:18:56.973Z,12.09
2023-04-23T01:22:01.344Z,12.00
2023-04-23T01:25:04.527Z,12.10
2023-04-23T01:28:07.064Z,11.99
2023-04-23T01:31:09.800Z,11.81
2023-04-23T01:34:13.176Z,11.91
2023-04-23T01:37:16.181Z,11.84
2023-04-23T01:40:19.935Z,11.64
2023-04-23T01:43:23.607Z,11.83
2023-04-23T01:46:26.291Z,11.75
2023-04-23T01:49:28.652Z,11.81
2023-04-23T01:52:31.138Z,11.71
2023-04-23T01:55:34.834Z,11.72
2023-04-23T01:58:37.136Z,11.72
2023-04-23T02:01:44.477Z,11.67
2023-04-23T02:04:48.813Z,11.73
2023-04-23T02:07:51.940Z,11.50
2023-04-23T02:10:54.292Z,11.68
2023-04-23T02:13:56.640Z,11.41
2023-04-23T02:16:58.978Z,11.67
2023-04-23T02:20:02.396Z,11.42
2023-04-23T02:23:04.892Z,11.48
2023-04-23T02:26:07.950Z,11.49
2023-04-23T02:29:10.637Z,11.43
2023-04-23T02:32:12.952Z,11.31
2023-04-23T02:35:15.747Z,11.27
2023-04-23T02:38:18.057Z,11.38
2023-04-23T02:41:20.375Z,11.32
2023-04-23T02:44:22.744Z,11.17
2023-04-23T02:47:25.030Z,11.24
2023-04-23T02:50:27.485Z,11.31
2023-04-23T02:53:29.853Z,11.37
2023-04-23T02:56:32.257Z,11.40
2023-04-23T02:59:34.637Z,11.46
2023-04-23T03:02:37.339Z,11.21
2023-04-23T03:05:39.882Z,11.32
2023-04-23T03:08:42.262Z,11.11
2023-04-23T03:11:44.619Z,11.26
2023-04-23T03:14:48.975Z,11.26
2023-04-23T03:17:53.972Z,11.13
2023-04-23T03:20:56.686Z,11.30
2023-04-23T03:23:59.199Z,11.21
2023-04-23T03:27:01.498Z,11.12
2023-04-23T03:30:04.289Z,11.18
2023-04-23T03:33:07.516Z,11.10
2023-04-23T03:36:09.918Z,11.06
2023-04-23T03:39:13.110Z,11.11
2023-04-23T03:42:24.797Z,10.84
2023-04-23T03:45:31.083Z,11.00
2023-04-23T03:48:33.703Z,10.86
2023-04-23T03:51:39.790Z,10.82
2023-04-23T03:54:44.054Z,10.93
2023-04-23T03:57:49.667Z,10.98
2023-04-23T04:00:58.402Z,11.03
2023-04-23T04:04:01.099Z,10.94
2023-04-23T04:07:03.646Z,10.92
2023-04-23T04:10:06.698Z,10.83
2023-04-23T04:13:08.972Z,11.01
2023-04-23T04:16:11.366Z,11.03
2023-04-23T04:19:13.768Z,10.96
2023-04-23T04:22:16.312Z,10.93
2023-04-23T04:25:18.936Z,11.21
2023-04-23T04:28:21.296Z,11.17
2023-04-23T04:31:23.650Z,11.24
2023-04-23T04:34:27.861Z,11.28
2023-04-23T04:37:30.598Z,11.38
2023-04-23T04:40:34.524Z,11.65
2023-04-23T04:43:37.747Z,11.49
2023-04-23T04:46:40.815Z,11.81
2023-04-23T04:49:43.201Z,11.80
2023-04-23T04:52:45.699Z,12.02
2023-04-23T04:55:48.024Z,12.12
2023-04-23T04:58:50.394Z,12.07
2023-04-23T05:01:52.860Z,12.23
2023-04-23T05:04:55.207Z,12.28
2023-04-23T05:07:59.443Z,12.30
2023-04-23T05:11:02.326Z,12.41
2023-04-23T05:14:04.726Z,12.05
2023-04-23T05:17:07.119Z,12.25
2023-04-23T05:20:13.935Z,12.48
2023-04-23T05:23:16.261Z,12.63
2023-04-23T05:26:18.656Z,12.97
2023-04-23T05:29:21.032Z,13.09
2023-04-23T05:32:23.704Z,12.95
2023-04-23T05:35:25.979Z,13.14
2023-04-23T05:38:28.327Z,13.38
2023-04-23T05:41:30.714Z,13.82
2023-04-23T05:44:33.011Z,13.98
2023-04-23T05:47:35.318Z,14.37
2023-04-23T05:50:37.724Z,14.39
2023-04-23T05:53:40.045Z,14.77
2023-04-23T05:56:42.265Z,14.92
2023-04-23T05:59:44.555Z,15.26
2023-04-23T06:02:48.044Z,15.60
2023-04-23T06:05:50.736Z,15.90
2023-04-23T06:08:53.070Z,16.20
2023-04-23T06:11:55.591Z,16.62
2023-04-23T06:14:58.092Z,16.79
2023-04-23T06:18:00.959Z,17.06
2023-04-23T06:21:04.472Z,17.23
2023-04-23T06:24:08.204Z,17.81
2023-04-23T06:27:10.877Z,18.33
2023-04-23T06:30:18.180Z,18.59
2023-04-23T06:33:20.894Z,18.79
2023-04-23T06:36:23.193Z,18.90
2023-04-23T06:39:25.576Z,19.13
2023-04-23T06:42:27.900Z,19.53
2023-04-23T06:45:53.347Z,20.00
2023-04-23T06:48:55.782Z,20.19
2023-04-23T06:51:58.193Z,20.28
2023-04-23T06:55:00.503Z,20.50
2023-04-23T06:58:03.577Z,20.97
2023-04-23T07:01:07.622Z,21.15
2023-04-23T07:04:11.228Z,21.51
2023-04-23T07:07:13.591Z,21.70
2023-04-23T07:10:17.581Z,21.72
2023-04-23T07:13:20.492Z,21.83
2023-04-23T07:16:23.940Z,22.02
2023-04-23T07:19:27.493Z,22.04
2023-04-23T07:22:30.516Z,22.39
2023-04-23T07:25:32.891Z,22.43
2023-04-23T07:28:35.378Z,22.50
2023-04-23T07:31:39.503Z,22.93
2023-04-23T07:34:42.078Z,23.30
2023-04-23T07:37:44.933Z,23.22
2023-04-23T07:40:47.501Z,23.41
2023-04-23T07:43:49.918Z,23.11
2023-04-23T07:46:52.637Z,23.40
2023-04-23T07:49:54.972Z,23.42
2023-04-23T07:52:57.327Z,23.52
2023-04-23T07:56:00.620Z,23.59
2023-04-23T07:59:05.433Z,23.93
2023-04-23T08:02:07.864Z,24.12
2023-04-23T08:05:10.296Z,24.21
2023-04-23T08:08:13.155Z,24.43
2023-04-23T08:11:15.685Z,24.64
2023-04-23T08:14:18.766Z,24.02
2023-04-23T08:17:21.149Z,24.29
2023-04-23T08:20:24.113Z,24.96
2023-04-23T08:23:26.418Z,24.94
2023-04-23T08:26:28.817Z,25.14
2023-04-23T08:29:31.163Z,25.15
2023-04-23T08:32:33.831Z,25.41
2023-04-23T08:35:37.088Z,25.29
2023-04-23T08:38:39.380Z,25.24
2023-04-23T08:41:43.300Z,25.45
2023-04-23T08:44:48.512Z,25.28
2023-04-23T08:47:50.964Z,24.75
2023-04-23T08:50:53.273Z,25.06
2023-04-23T08:53:58.624Z,25.61
2023-04-23T08:57:02.077Z,25.67
2023-04-23T09:00:06.624Z,25.39
2023-04-23T09:03:09.242Z,25.53
2023-04-23T09:06:12.187Z,25.77
2023-04-23T09:09:16.245Z,25.67
2023-04-23T09:12:18.616Z,25.71
2023-04-23T09:15:21.100Z,25.95
2023-04-23T09:18:23.716Z,25.99
2023-04-23T09:21:26.452Z,26.21
2023-04-23T09:24:28.728Z,26.11
2023-04-23T09:27:31.292Z,26.40
2023-04-23T09:30:39.491Z,26.45
2023-04-23T09:33:41.847Z,26.04
2023-04-23T09:36:45.408Z,26.35
2023-04-23T09:39:47.800Z,25.95
2023-04-23T09:42:55.233Z,26.26
2023-04-23T09:45:57.726Z,26.00
2023-04-23T09:49:02.907Z,25.72
2023-04-23T09:52:07.054Z,25.85
2023-04-23T09:55:11.120Z,26.26
2023-04-23T09:58:15.744Z,26.01
2023-04-23T10:01:18.696Z,25.58
2023-04-23T10:04:25.637Z,26.01
2023-04-23T10:07:29.455Z,25.99
2023-04-23T10:10:31.803Z,25.61
2023-04-23T10:13:36.413Z,24.89
2023-04-23T10:16:48.625Z,25.13
2023-04-23T10:19:52.426Z,25.47
2023-04-23T10:22:56.571Z,25.50
2023-04-23T10:26:01.051Z,25.16
2023-04-23T10:29:05.027Z,24.90
2023-04-23T10:32:07.680Z,24.78
2023-04-23T10:35:11.110Z,25.19
2023-04-23T10:38:14.099Z,25.51
2023-04-23T10:41:20.573Z,24.73
2023-04-23T10:44:45.097Z,24.75
2023-04-23T10:47:46.811Z,24.99
2023-04-23T10:51:09.639Z,25.24
2023-04-23T10:54:20.524Z,24.45
2023-04-23T10:57:22.926Z,23.77
2023-04-23T11:00:26.524Z,23.85
2023-04-23T11:03:44.376Z,24.61
2023-04-23T11:06:48.084Z,25.13
2023-04-23T11:09:50.437Z,24.71
2023-04-23T11:12:53.043Z,24.38
2023-04-23T11:16:35.743Z,24.77
2023-04-23T11:19:38.997Z,25.23
2023-04-23T11:22:46.232Z,25.98
2023-04-23T11:25:48.595Z,25.47
2023-04-23T11:28:52.105Z,24.80
2023-04-23T11:35:05.069Z,23.65
2023-04-23T11:38:12.436Z,23.13
2023-04-23T11:41:15.987Z,23.46
2023-04-23T11:44:20.537Z,24.11
2023-04-23T11:47:26.298Z,24.66
2023-04-23T11:50:30.706Z,24.64
2023-04-23T11:53:33.261Z,24.50
2023-04-23T11:56:35.712Z,23.94
2023-04-23T11:59:38.113Z,23.57
2023-04-23T12:02:52.139Z,23.17
2023-04-23T12:05:56.233Z,22.90
2023-04-23T12:08:58.851Z,22.86
2023-04-23T12:12:03.556Z,22.52
2023-04-23T12:15:07.783Z,22.95
2023-04-23T12:18:11.116Z,23.58
2023-04-23T12:21:14.097Z,24.10
2023-04-23T12:24:18.439Z,24.73
2023-04-23T12:27:22.419Z,25.08
2023-04-23T12:30:28.928Z,25.03
2023-04-23T12:33:31.533Z,24.98
2023-04-23T12:36:37.062Z,24.38
2023-04-23T12:39:39.671Z,24.37
2023-04-23T12:42:42.331Z,24.27
2023-04-23T12:45:45.819Z,23.71
2023-04-23T12:48:48.151Z,23.22
2023-04-23T12:51:50.777Z,23.66
2023-04-23T12:54:56.381Z,23.96
2023-04-23T12:57:59.955Z,24.29
2023-04-23T13:01:02.334Z,24.53
2023-04-23T13:04:04.698Z,24.56
2023-04-23T13:07:12.222Z,25.00
2023-04-23T13:10:17.131Z,24.86
2023-04-23T13:13:19.475Z,24.96
2023-04-23T13:16:21.874Z,25.02
2023-04-23T13:19:24.800Z,25.05
2023-04-23T13:22:29.237Z,24.92
2023-04-23T13:25:34.480Z,25.06
2023-04-23T13:28:36.884Z,24.62
2023-04-23T13:31:39.837Z,24.68
2023-04-23T13:34:42.506Z,24.71
2023-04-23T13:37:45.123Z,24.84
2023-04-23T13:40:47.365Z,24.84
2023-04-23T13:43:49.779Z,24.53
2023-04-23T13:46:52.188Z,24.29
2023-04-23T13:49:54.505Z,24.55
2023-04-23T13:52:56.827Z,24.81
2023-04-23T13:55:59.707Z,24.70
2023-04-23T13:59:18.784Z,24.63
2023-04-23T14:02:24.108Z,24.68
2023-04-23T14:05:26.549Z,24.14
2023-04-23T14:08:28.886Z,24.04
2023-04-23T14:11:31.189Z,24.08
2023-04-23T14:14:33.553Z,24.16
2023-04-23T14:17:37.300Z,24.02
2023-04-23T14:20:39.709Z,24.13
2023-04-23T14:23:50.719Z,24.01
2023-04-23T14:26:53.200Z,23.85
2023-04-23T14:29:55.597Z,23.79
2023-04-23T14:32:57.975Z,23.65
2023-04-23T14:36:00.332Z,23.59
2023-04-23T14:39:05.286Z,23.32
2023-04-23T14:42:07.658Z,23.08
2023-04-23T14:45:10.254Z,22.97
2023-04-23T14:48:12.514Z,22.93
2023-04-23T14:51:14.887Z,22.92
2023-04-23T14:54:17.707Z,22.80
2023-04-23T14:57:20.018Z,22.62
2023-04-23T15:00:22.487Z,22.40
2023-04-23T15:03:26.831Z,22.27
2023-04-23T15:06:29.308Z,22.36
2023-04-23T15:09:31.600Z,22.26
2023-04-23T15:12:43.420Z,22.21
2023-04-23T15:15:56.770Z,22.32
2023-04-23T15:19:03.467Z,22.05
2023-04-23T15:22:05.844Z,22.10
2023-04-23T15:25:08.196Z,21.82
2023-04-23T15:28:10.648Z,21.79
2023-04-23T15:31:13.058Z,21.86
2023-04-23T15:34:15.465Z,22.02
2023-04-23T15:37:20.055Z,22.01
2023-04-23T15:40:22.615Z,21.96
2023-04-23T15:43:24.957Z,21.93
2023-04-23T15:46:27.252Z,21.97
2023-04-23T15:49:29.820Z,21.83
2023-04-23T15:52:32.269Z,21.73
2023-04-23T15:55:34.683Z,21.72
2023-04-23T15:58:37.056Z,21.56
2023-04-23T16:01:39.638Z,21.68
2023-04-23T16:04:42.336Z,21.60
2023-04-23T16:07:44.853Z,21.59
2023-04-23T16:10:47.167Z,21.55
2023-04-23T16:13:49.625Z,21.51
2023-04-23T16:16:51.950Z,21.53
2023-04-23T16:19:54.403Z,21.52
2023-04-23T16:22:56.920Z,21.46
2023-04-23T16:26:01.543Z,21.22
2023-04-23T16:29:16.580Z,21.29
2023-04-23T16:32:23.526Z,21.24
2023-04-23T16:35:25.902Z,21.13
2023-04-23T16:38:28.191Z,21.14
2023-04-23T16:41:31.558Z,21.06
2023-04-23T16:44:33.879Z,21.06
2023-04-23T16:47:36.339Z,21.10
2023-04-23T16:50:39.029Z,21.01
2023-04-23T16:53:41.372Z,20.95
2023-04-23T16:56:45.496Z,21.00
2023-04-23T16:59:47.833Z,20.95
2023-04-23T17:02:50.449Z,20.85
2023-04-23T17:06:19.537Z,20.79
2023-04-23T17:09:22.063Z,20.72
2023-04-23T17:12:24.665Z,20.74
2023-04-23T17:15:27.209Z,20.66
2023-04-23T17:18:29.891Z,20.64
2023-04-23T17:21:32.514Z,20.59
2023-04-23T17:24:36.359Z,20.57
2023-04-23T17:27:39.406Z,20.39
2023-04-23T17:30:41.851Z,20.18
2023-04-23T17:33:45.594Z,20.30
2023-04-23T17:36:48.616Z,20.18
2023-04-23T17:39:51.130Z,20.04
2023-04-23T17:42:53.581Z,19.90
2023-04-23T17:45:55.925Z,19.85
2023-04-23T17:48:58.438Z,19.83
2023-04-23T17:52:00.985Z,19.60
2023-04-23T17:55:03.759Z,19.57
2023-04-23T17:58:06.708Z,19.56
2023-04-23T18:01:10.108Z,19.54
2023-04-23T18:04:13.472Z,19.32
2023-04-23T18:07:17.575Z,19.35
2023-04-23T18:10:20.037Z,19.29
2023-04-23T18:13:22.566Z,19.14
2023-04-23T18:16:25.297Z,19.14
2023-04-23T18:19:27.893Z,19.05
2023-04-23T18:22:30.175Z,19.03
2023-04-23T18:25:32.842Z,18.89
2023-04-23T18:28:37.154Z,18.76
2023-04-23T18:31:39.447Z,18.91
2023-04-23T18:34:41.915Z,18.91
2023-04-23T18:37:49.381Z,18.91
2023-04-23T18:40:51.934Z,18.73
2023-04-23T18:43:54.358Z,18.64
2023-04-23T18:46:56.766Z,18.51
2023-04-23T18:50:09.275Z,18.54
2023-04-23T18:53:11.876Z,18.47
2023-04-23T18:56:15.027Z,18.50
2023-04-23T18:59:18.886Z,18.45
2023-04-23T19:02:34.543Z,18.32
2023-04-23T19:05:38.613Z,18.28
2023-04-23T19:08:42.418Z,18.38
2023-04-23T19:11:45.378Z,18.32
2023-04-23T19:14:47.650Z,18.21
2023-04-23T19:17:50.141Z,18.23
2023-04-23T19:20:53.858Z,18.17
2023-04-23T19:23:56.810Z,18.15
2023-04-23T19:26:59.190Z,18.04
2023-04-23T19:30:01.800Z,18.07
2023-04-23T19:33:04.726Z,18.00
2023-04-23T19:36:07.165Z,18.00
2023-04-23T19:39:10.571Z,17.83
2023-04-23T19:42:14.871Z,17.92
2023-04-23T19:45:18.468Z,17.85
2023-04-23T19:48:23.913Z,17.74
2023-04-23T19:51:29.168Z,17.79
2023-04-23T19:54:31.634Z,17.80
2023-04-23T19:57:33.905Z,17.69
2023-04-23T20:00:41.642Z,17.62
2023-04-23T20:03:52.030Z,17.56
2023-04-23T20:06:54.376Z,17.57
2023-04-23T20:09:56.682Z,17.70
2023-04-23T20:12:59.880Z,17.58
2023-04-23T20:16:03.232Z,17.55
2023-04-23T20:19:11.447Z,17.40
2023-04-23T20:22:13.737Z,17.30
2023-04-23T20:25:16.083Z,17.42
2023-04-23T20:28:18.465Z,17.29
2023-04-23T20:31:21.377Z,17.33
2023-04-23T20:34:23.734Z,17.29
2023-04-23T20:37:26.855Z,17.28
2023-04-23T20:40:34.509Z,17.26
2023-04-23T20:43:38.822Z,17.31
2023-04-23T20:46:41.258Z,17.26
2023-04-23T20:49:43.811Z,17.29
2023-04-23T20:52:46.558Z,17.19
2023-04-23T20:55:48.932Z,17.29
2023-04-23T20:58:51.268Z,17.37
2023-04-23T21:01:53.655Z,17.28
2023-04-23T21:04:56.114Z,17.34
2023-04-23T21:07:58.433Z,17.24
2023-04-23T21:11:00.814Z,17.21
2023-04-23T21:14:03.130Z,17.18
2023-04-23T21:17:05.768Z,17.13
2023-04-23T21:20:09.661Z,17.27
2023-04-23T21:23:12.347Z,17.17
2023-04-23T21:26:14.624Z,17.03
2023-04-23T21:29:16.997Z,17.12
2023-04-23T21:32:19.642Z,17.07
2023-04-23T21:35:21.987Z,17.11
2023-04-23T21:38:24.251Z,17.10
2023-04-23T21:41:26.595Z,17.11
2023-04-23T21:44:31.176Z,17.07
2023-04-23T21:47:33.516Z,16.87
2023-04-23T21:50:36.250Z,17.06
2023-04-23T21:53:38.583Z,16.96
2023-04-23T21:56:41.639Z,16.97
2023-04-23T21:59:44.101Z,16.88
2023-04-23T22:02:47.257Z,16.74
2023-04-23T22:05:52.286Z,16.63
2023-04-23T22:08:56.046Z,16.67
2023-04-23T22:12:02.393Z,16.73
2023-04-23T22:15:06.774Z,16.64
2023-04-23T22:18:09.090Z,16.66
2023-04-23T22:21:11.505Z,16.50
2023-04-23T22:24:13.807Z,16.58
2023-04-23T22:27:16.218Z,16.66
2023-04-23T22:30:18.553Z,16.66
2023-04-23T22:33:21.184Z,16.70
2023-04-23T22:36:23.485Z,16.69
2023-04-23T22:39:25.902Z,16.68
2023-04-23T22:42:28.237Z,16.79
2023-04-23T22:45:30.616Z,16.68
2023-04-23T22:48:32.948Z,16.69
2023-04-23T22:51:35.889Z,16.67
2023-04-23T22:54:38.190Z,16.63
2023-04-23T22:57:40.559Z,16.58
2023-04-23T23:00:42.923Z,16.59
2023-04-23T23:03:45.292Z,16.59
2023-04-23T23:06:47.774Z,16.69
2023-04-23T23:09:50.271Z,16.66
2023-04-23T23:12:53.026Z,16.64
2023-04-23T23:15:55.705Z,16.53
2023-04-23T23:18:58.495Z,16.55
2023-04-23T23:22:00.832Z,16.48
2023-04-23T23:25:03.879Z,16.33
2023-04-23T23:28:06.259Z,16.40
2023-04-23T23:31:09.571Z,16.39
2023-04-23T23:34:12.393Z,16.36
2023-04-23T23:37:14.712Z,16.32
2023-04-23T23:40:17.057Z,16.40
2023-04-23T23:43:19.287Z,16.32
2023-04-23T23:46:22.296Z,16.38
2023-04-23T23:49:24.652Z,16.39
2023-04-23T23:52:26.997Z,16.40
2023-04-23T23:55:29.290Z,16.28
2023-04-23T23:58:31.578Z,16.17
